Terminal Aerodrome Forecast
Issued by NWS Sioux Falls, SD

Home | Current Version | Previous Version | Text Only | Print | Product List | Glossary On
Versions: 1 2 3 4 5 6 7 8 9 10 11 12 13
000
FTUS43 KFSD 240520
TAFFSD
TAF
KFSD 240520Z 2406/2506 12009KT P6SM VCSH OVC025
     FM240700 11008KT P6SM -SHRA OVC015
     FM241100 10011KT 6SM -SHRA BR OVC009
     FM241600 12011KT P6SM OVC015
     FM242100 10006KT P6SM OVC035=

USA.gov is the U.S. government's official web portal to all federal, state and local government web resources and services.